createdAt,value
2022-08-31T00:00:58.428Z,102137.94
2022-08-31T00:03:43.705Z,102145.88
2022-08-31T00:06:10.308Z,102132.41
2022-08-31T00:08:36.935Z,102135.50
2022-08-31T00:11:09.839Z,102127.50
2022-08-31T00:13:39.048Z,102131.31
2022-08-31T00:16:10.325Z,102134.03
2022-08-31T00:18:37.792Z,102146.59
2022-08-31T00:21:05.238Z,102137.28
2022-08-31T00:23:32.180Z,102139.16
2022-08-31T00:25:58.788Z,102146.41
2022-08-31T00:28:30.050Z,102132.94
2022-08-31T00:30:56.628Z,102135.72
2022-08-31T00:33:23.185Z,102140.53
2022-08-31T00:35:49.739Z,102142.78
2022-08-31T00:38:18.895Z,102153.97
2022-08-31T00:40:47.310Z,102141.34
2022-08-31T00:43:41.057Z,102147.34
2022-08-31T00:46:09.692Z,102141.16
2022-08-31T00:48:41.847Z,102124.56
2022-08-31T00:51:08.808Z,102133.00
2022-08-31T00:53:38.508Z,102139.38
2022-08-31T00:56:05.471Z,102134.16
2022-08-31T00:58:32.093Z,102135.38
2022-08-31T01:00:59.733Z,102141.22
2022-08-31T01:03:26.473Z,102135.16
2022-08-31T01:05:53.307Z,102131.84
2022-08-31T01:08:30.745Z,102134.06
2022-08-31T01:10:58.902Z,102128.03
2022-08-31T01:13:28.713Z,102128.03
2022-08-31T01:16:03.461Z,102126.28
2022-08-31T01:18:33.443Z,102126.28
2022-08-31T01:21:09.482Z,102125.75
2022-08-31T01:23:45.384Z,102133.31
2022-08-31T01:26:17.696Z,102131.25
2022-08-31T01:28:44.658Z,102124.19
2022-08-31T01:31:39.266Z,102125.22
2022-08-31T01:34:06.138Z,102132.63
2022-08-31T01:36:34.340Z,102136.25
2022-08-31T01:39:00.919Z,102134.50
2022-08-31T01:41:27.706Z,102140.19
2022-08-31T01:43:54.688Z,102134.59
2022-08-31T01:46:21.831Z,102126.88
2022-08-31T01:48:49.205Z,102132.56
2022-08-31T01:51:18.700Z,102129.97
2022-08-31T01:53:49.404Z,102131.16
2022-08-31T01:56:35.786Z,102140.44
2022-08-31T01:59:08.064Z,102135.25
2022-08-31T02:01:40.158Z,102132.81
2022-08-31T02:04:11.749Z,102130.53
2022-08-31T02:06:44.816Z,102130.47
2022-08-31T02:09:11.732Z,102134.06
2022-08-31T02:11:38.478Z,102129.56
2022-08-31T02:14:06.926Z,102128.72
2022-08-31T02:16:33.866Z,102135.41
2022-08-31T02:19:00.619Z,102138.16
2022-08-31T02:21:27.704Z,102130.72
2022-08-31T02:23:54.408Z,102132.41
2022-08-31T02:26:23.612Z,102121.72
2022-08-31T02:28:50.175Z,102132.88
2022-08-31T02:31:17.438Z,102134.63
2022-08-31T02:33:46.503Z,102137.00
2022-08-31T02:36:13.027Z,102140.75
2022-08-31T02:38:40.382Z,102138.16
2022-08-31T02:41:07.593Z,102130.22
2022-08-31T02:43:34.133Z,102134.88
2022-08-31T02:46:00.783Z,102143.28
2022-08-31T02:48:27.504Z,102127.78
2022-08-31T02:50:54.836Z,102127.97
2022-08-31T02:53:27.425Z,102128.44
2022-08-31T02:55:53.990Z,102134.09
2022-08-31T02:58:23.942Z,102130.22
2022-08-31T03:00:51.181Z,102144.13
2022-08-31T03:03:18.829Z,102130.84
2022-08-31T03:05:45.615Z,102134.78
2022-08-31T03:08:12.143Z,102144.78
2022-08-31T03:10:38.784Z,102137.84
2022-08-31T03:13:05.678Z,102146.97
2022-08-31T03:15:32.553Z,102132.50
2022-08-31T03:18:06.780Z,102134.00
2022-08-31T03:20:34.600Z,102133.03
2022-08-31T03:23:01.517Z,102143.72
2022-08-31T03:25:30.008Z,102140.28
2022-08-31T03:27:56.812Z,102131.31
2022-08-31T03:30:27.591Z,102132.22
2022-08-31T03:33:02.324Z,102139.44
2022-08-31T03:35:30.236Z,102131.53
2022-08-31T03:38:01.057Z,102139.78
2022-08-31T03:40:27.721Z,102142.69
2022-08-31T03:42:54.358Z,102139.50
2022-08-31T03:45:20.955Z,102140.69
2022-08-31T03:47:47.542Z,102138.38
2022-08-31T03:50:16.676Z,102150.22
2022-08-31T03:52:43.228Z,102142.13
2022-08-31T03:55:11.558Z,102141.00
2022-08-31T03:57:38.353Z,102146.50
2022-08-31T04:00:06.391Z,102133.22
2022-08-31T04:02:37.367Z,102147.97
2022-08-31T04:05:04.552Z,102144.50
2022-08-31T04:07:31.160Z,102149.47
2022-08-31T04:10:12.348Z,102148.91
2022-08-31T04:12:39.930Z,102142.81
2022-08-31T04:15:07.540Z,102150.06
2022-08-31T04:17:34.695Z,102140.84
2022-08-31T04:20:01.265Z,102152.69
2022-08-31T04:22:27.929Z,102143.19
2022-08-31T04:24:54.549Z,102158.78
2022-08-31T04:27:21.046Z,102154.47
2022-08-31T04:29:47.612Z,102143.19
2022-08-31T04:32:14.242Z,102153.31
2022-08-31T04:34:40.826Z,102161.28
2022-08-31T04:37:09.910Z,102160.56
2022-08-31T04:39:49.470Z,102161.41
2022-08-31T04:42:18.028Z,102160.72
2022-08-31T04:44:44.555Z,102160.84
2022-08-31T04:47:11.246Z,102150.88
2022-08-31T04:49:38.313Z,102164.59
2022-08-31T04:52:08.288Z,102160.16
2022-08-31T04:54:35.265Z,102161.16
2022-08-31T04:57:01.905Z,102166.50
2022-08-31T04:59:28.501Z,102169.53
2022-08-31T05:01:55.876Z,102163.34
2022-08-31T05:04:24.642Z,102160.72
2022-08-31T05:06:54.185Z,102163.63
2022-08-31T05:09:23.676Z,102162.91
2022-08-31T05:11:55.039Z,102162.31
2022-08-31T05:14:23.289Z,102160.72
2022-08-31T05:16:50.692Z,102165.19
2022-08-31T05:19:18.014Z,102175.34
2022-08-31T05:21:45.291Z,102181.41
2022-08-31T05:24:21.600Z,102179.09
2022-08-31T05:26:54.216Z,102180.50
2022-08-31T05:29:24.619Z,102182.25
2022-08-31T05:31:52.617Z,102179.47
2022-08-31T05:34:20.803Z,102173.84
2022-08-31T05:36:51.623Z,102182.75
2022-08-31T05:39:21.098Z,102190.25
2022-08-31T05:41:48.939Z,102193.28
2022-08-31T05:44:16.533Z,102185.28
2022-08-31T05:46:43.723Z,102177.16
2022-08-31T05:49:10.959Z,102184.81
2022-08-31T05:51:38.914Z,102173.66
2022-08-31T05:54:07.155Z,102177.44
2022-08-31T05:56:34.575Z,102177.44
2022-08-31T05:59:01.956Z,102178.00
2022-08-31T06:01:31.912Z,102182.31
2022-08-31T06:04:00.324Z,102185.22
2022-08-31T06:06:27.613Z,102180.03
2022-08-31T06:08:57.778Z,102190.59
2022-08-31T06:11:27.426Z,102196.84
2022-08-31T06:13:59.796Z,102204.53
2022-08-31T06:16:30.273Z,102198.03
2022-08-31T06:19:03.228Z,102205.41
2022-08-31T06:21:31.650Z,102204.38
2022-08-31T06:24:03.301Z,102206.19
2022-08-31T06:26:32.597Z,102203.13
2022-08-31T06:29:02.778Z,102194.44
2022-08-31T06:31:47.029Z,102198.41
2022-08-31T06:34:18.939Z,102194.16
2022-08-31T06:36:46.297Z,102204.41
2022-08-31T06:39:15.124Z,102203.69
2022-08-31T06:41:41.745Z,102203.06
2022-08-31T06:44:12.036Z,102207.00
2022-08-31T06:46:42.280Z,102210.31
2022-08-31T06:49:16.685Z,102212.22
2022-08-31T06:51:43.939Z,102222.69
2022-08-31T06:54:30.984Z,102210.22
2022-08-31T06:57:02.857Z,102217.41
2022-08-31T06:59:30.141Z,102221.47
2022-08-31T07:02:01.298Z,102190.97
2022-08-31T07:04:31.037Z,102217.06
2022-08-31T07:06:57.692Z,102221.66
2022-08-31T07:09:25.027Z,102227.00
2022-08-31T07:11:52.370Z,102215.03
2022-08-31T07:14:24.123Z,102226.81
2022-08-31T07:16:53.343Z,102230.97
2022-08-31T07:19:21.962Z,102216.13
2022-08-31T07:21:51.918Z,102223.22
2022-08-31T07:24:24.195Z,102216.56
2022-08-31T07:26:58.200Z,102225.56
2022-08-31T07:29:37.586Z,102214.13
2022-08-31T07:32:04.246Z,102225.06
2022-08-31T07:34:31.449Z,102218.28
2022-08-31T07:37:18.249Z,102220.84
2022-08-31T07:40:07.541Z,102224.31
2022-08-31T07:42:43.915Z,102225.56
2022-08-31T07:45:22.851Z,102227.66
2022-08-31T07:47:56.551Z,102232.69
2022-08-31T07:50:24.299Z,102225.91
2022-08-31T07:52:55.636Z,102225.47
2022-08-31T07:55:23.697Z,102212.31
2022-08-31T07:57:53.347Z,102234.41
2022-08-31T08:00:26.805Z,102229.69
2022-08-31T08:02:54.131Z,102236.31
2022-08-31T08:05:28.915Z,102223.47
2022-08-31T08:08:05.563Z,102232.06
2022-08-31T08:10:38.479Z,102235.47
2022-08-31T08:13:06.853Z,102244.84
2022-08-31T08:15:38.783Z,102225.13
2022-08-31T08:18:07.968Z,102239.88
2022-08-31T08:20:38.276Z,102232.31
2022-08-31T08:23:14.530Z,102237.09
2022-08-31T08:25:44.285Z,102234.53
2022-08-31T08:28:38.204Z,102241.31
2022-08-31T08:31:07.885Z,102223.94
2022-08-31T08:33:37.733Z,102224.34
2022-08-31T08:36:08.842Z,102239.41
2022-08-31T08:38:39.364Z,102232.25
2022-08-31T08:41:13.301Z,102231.69
2022-08-31T08:43:43.763Z,102239.81
2022-08-31T08:46:31.716Z,102239.50
2022-08-31T08:49:09.376Z,102237.25
2022-08-31T08:51:38.665Z,102238.09
2022-08-31T08:54:20.434Z,102232.72
2022-08-31T08:56:49.948Z,102239.50
2022-08-31T08:59:20.018Z,102228.94
2022-08-31T09:01:54.131Z,102237.47
2022-08-31T09:04:35.171Z,102239.31
2022-08-31T09:07:23.096Z,102245.34
2022-08-31T09:10:01.272Z,102243.22
2022-08-31T09:12:46.222Z,102223.06
2022-08-31T09:15:37.440Z,102230.31
2022-08-31T09:18:12.968Z,102232.19
2022-08-31T09:20:43.263Z,102233.22
2022-08-31T09:23:12.274Z,102242.75
2022-08-31T09:25:52.181Z,102228.63
2022-08-31T09:28:34.991Z,102238.00
2022-08-31T09:31:02.126Z,102234.97
2022-08-31T09:33:34.719Z,102244.72
2022-08-31T09:36:33.662Z,102231.53
2022-08-31T09:39:18.207Z,102225.22
2022-08-31T09:41:45.978Z,102220.44
2022-08-31T09:44:32.049Z,102236.22
2022-08-31T09:47:04.069Z,102215.38
2022-08-31T09:49:36.673Z,102239.47
2022-08-31T09:52:48.091Z,102226.75
2022-08-31T09:55:19.821Z,102220.41
2022-08-31T09:57:54.048Z,102235.13
2022-08-31T10:00:39.830Z,102237.31
2022-08-31T10:03:29.989Z,102234.28
2022-08-31T10:05:56.981Z,102236.63
2022-08-31T10:08:58.164Z,102215.22
2022-08-31T10:11:31.181Z,102223.41
2022-08-31T10:14:08.849Z,102209.59
2022-08-31T10:16:41.712Z,102217.63
2022-08-31T10:19:30.417Z,102215.25
2022-08-31T10:22:03.453Z,102223.19
2022-08-31T10:24:46.154Z,102219.88
2022-08-31T10:27:20.270Z,102222.81
2022-08-31T10:29:49.315Z,102222.94
2022-08-31T10:32:30.537Z,102210.81
2022-08-31T10:35:19.475Z,102222.81
2022-08-31T10:38:26.147Z,102220.31
2022-08-31T10:41:06.753Z,102214.53
2022-08-31T10:44:28.591Z,102207.41
2022-08-31T10:47:02.965Z,102221.56
2022-08-31T10:49:33.335Z,102214.53
2022-08-31T10:52:11.857Z,102205.97
2022-08-31T10:54:47.762Z,102214.78
2022-08-31T10:57:32.498Z,102210.03
2022-08-31T11:00:29.931Z,102211.31
2022-08-31T11:03:10.605Z,102213.22
2022-08-31T11:05:48.648Z,102212.84
2022-08-31T11:08:49.090Z,102219.53
2022-08-31T11:11:43.951Z,102211.03
2022-08-31T11:14:29.403Z,102199.06
2022-08-31T11:16:55.973Z,102217.97
2022-08-31T11:19:50.711Z,102207.94
2022-08-31T11:22:42.119Z,102197.31
2022-08-31T11:25:48.134Z,102196.25
2022-08-31T11:28:52.303Z,102201.69
2022-08-31T11:31:24.213Z,102190.31
2022-08-31T11:34:17.006Z,102184.19
2022-08-31T11:36:50.331Z,102191.03
2022-08-31T11:39:43.068Z,102203.50
2022-08-31T11:42:27.467Z,102181.63
2022-08-31T11:45:01.597Z,102184.03
2022-08-31T11:47:28.241Z,102178.31
2022-08-31T11:50:33.844Z,102167.59
2022-08-31T11:53:20.655Z,102159.03
2022-08-31T11:55:49.418Z,102171.06
2022-08-31T11:58:26.560Z,102151.28
2022-08-31T12:01:06.920Z,102178.38
2022-08-31T12:03:50.706Z,102176.19
2022-08-31T12:06:27.876Z,102158.38
2022-08-31T12:09:20.412Z,102159.84
2022-08-31T12:12:06.503Z,102138.16
2022-08-31T12:14:50.236Z,102153.38
2022-08-31T12:17:27.599Z,102148.69
2022-08-31T12:20:32.288Z,102154.28
2022-08-31T12:23:31.167Z,102141.78
2022-08-31T12:26:10.171Z,102137.44
2022-08-31T12:28:59.810Z,102124.75
2022-08-31T12:31:26.804Z,102143.88
2022-08-31T12:34:07.969Z,102132.91
2022-08-31T12:36:36.718Z,102140.00
2022-08-31T12:39:26.006Z,102131.41
2022-08-31T12:41:56.788Z,102133.94
2022-08-31T12:44:36.786Z,102127.63
2022-08-31T12:47:24.372Z,102126.09
2022-08-31T12:50:09.165Z,102126.09
2022-08-31T12:53:20.121Z,102126.53
2022-08-31T12:55:54.955Z,102039.03
2022-08-31T12:58:41.590Z,102109.44
2022-08-31T13:01:14.821Z,102109.13
2022-08-31T13:03:54.249Z,102097.09
2022-08-31T13:06:32.902Z,102115.16
2022-08-31T13:09:00.981Z,102104.06
2022-08-31T13:11:40.149Z,102113.97
2022-08-31T13:14:20.041Z,102120.81
2022-08-31T13:16:53.409Z,102098.34
2022-08-31T13:19:39.414Z,102091.53
2022-08-31T13:22:17.150Z,102092.13
2022-08-31T13:24:53.983Z,102107.63
2022-08-31T13:27:27.516Z,102112.94
2022-08-31T13:29:58.746Z,102102.69
2022-08-31T13:32:32.195Z,102089.84
2022-08-31T13:35:05.941Z,102084.91
2022-08-31T13:37:39.007Z,102087.84
2022-08-31T13:40:13.177Z,102073.59
2022-08-31T13:42:46.850Z,102081.69
2022-08-31T13:45:30.269Z,102076.19
2022-08-31T13:48:19.372Z,102084.03
2022-08-31T13:50:56.206Z,102082.94
2022-08-31T13:54:08.837Z,102073.41
2022-08-31T13:56:57.973Z,102086.63
2022-08-31T13:59:53.774Z,102069.97
2022-08-31T14:02:21.673Z,102074.47
2022-08-31T14:05:00.607Z,102084.66
2022-08-31T14:07:39.201Z,102077.47
2022-08-31T14:10:20.505Z,102070.88
2022-08-31T14:12:57.495Z,102076.88
2022-08-31T14:15:35.403Z,102083.50
2022-08-31T14:18:26.130Z,102085.44
2022-08-31T14:21:26.917Z,102076.44
2022-08-31T14:24:01.730Z,102068.59
2022-08-31T14:26:52.123Z,102077.34
2022-08-31T14:29:21.003Z,102083.72
2022-08-31T14:31:52.929Z,102061.00
2022-08-31T14:34:25.900Z,102063.91
2022-08-31T14:37:07.844Z,102055.44
2022-08-31T14:39:41.817Z,102066.75
2022-08-31T14:42:17.140Z,102052.16
2022-08-31T14:44:53.727Z,102055.66
2022-08-31T14:47:24.263Z,102051.72
2022-08-31T14:49:54.817Z,102050.31
2022-08-31T14:52:21.774Z,102050.81
2022-08-31T14:54:48.585Z,102056.44
2022-08-31T14:57:25.439Z,102045.31
2022-08-31T14:59:59.683Z,102051.53
2022-08-31T15:02:33.424Z,102035.44
2022-08-31T15:05:06.547Z,102042.09
2022-08-31T15:07:40.327Z,102047.56
2022-08-31T15:10:12.890Z,102046.72
2022-08-31T15:12:42.514Z,102052.75
2022-08-31T15:15:11.294Z,102045.69
2022-08-31T15:17:39.576Z,102051.22
2022-08-31T15:20:08.078Z,102044.97
2022-08-31T15:22:40.548Z,102047.34
2022-08-31T15:25:11.936Z,102050.56
2022-08-31T15:27:41.663Z,102051.41
2022-08-31T15:30:09.366Z,102038.13
2022-08-31T15:32:43.235Z,102041.78
2022-08-31T15:35:22.295Z,102039.38
2022-08-31T15:37:58.935Z,102052.28
2022-08-31T15:40:29.155Z,102045.91
2022-08-31T15:42:56.271Z,102052.41
2022-08-31T15:45:23.602Z,102045.94
2022-08-31T15:48:08.460Z,102040.53
2022-08-31T15:50:35.945Z,102052.16
2022-08-31T15:53:11.965Z,102041.19
2022-08-31T15:55:42.542Z,102042.91
2022-08-31T15:58:12.721Z,102037.28
2022-08-31T16:00:41.866Z,102027.66
2022-08-31T16:03:08.960Z,102040.94
2022-08-31T16:05:39.393Z,102043.69
2022-08-31T16:08:10.651Z,102041.56
2022-08-31T16:10:41.494Z,102032.59
2022-08-31T16:13:09.341Z,102032.66
2022-08-31T16:15:37.792Z,102036.53
2022-08-31T16:18:05.850Z,102035.00
2022-08-31T16:20:32.742Z,102027.47
2022-08-31T16:23:00.698Z,102031.16
2022-08-31T16:25:30.454Z,102029.44
2022-08-31T16:28:14.699Z,102047.28
2022-08-31T16:30:43.692Z,102031.84
2022-08-31T16:33:11.193Z,102033.78
2022-08-31T16:35:39.331Z,102032.28
2022-08-31T16:38:08.345Z,102045.22
2022-08-31T16:40:37.449Z,102038.34
2022-08-31T16:43:06.426Z,102034.28
2022-08-31T16:45:33.288Z,102037.94
2022-08-31T16:48:20.291Z,102039.66
2022-08-31T16:50:48.683Z,102036.66
2022-08-31T16:53:18.210Z,102036.22
2022-08-31T16:55:47.445Z,102037.09
2022-08-31T16:58:24.914Z,102041.81
2022-08-31T17:01:11.977Z,102033.25
2022-08-31T17:03:47.190Z,102029.81
2022-08-31T17:06:14.047Z,102037.09
2022-08-31T17:08:47.310Z,102033.25
2022-08-31T17:11:22.499Z,102037.75
2022-08-31T17:13:52.752Z,102033.69
2022-08-31T17:16:23.751Z,102037.53
2022-08-31T17:18:52.644Z,102039.06
2022-08-31T17:21:24.984Z,102035.38
2022-08-31T17:23:52.753Z,102042.69
2022-08-31T17:26:23.085Z,102039.44
2022-08-31T17:29:01.799Z,102039.66
2022-08-31T17:31:31.571Z,102030.66
2022-08-31T17:33:59.074Z,102036.22
2022-08-31T17:36:32.288Z,102035.59
2022-08-31T17:39:00.836Z,102039.84
2022-08-31T17:41:28.285Z,102034.69
2022-08-31T17:43:58.485Z,102053.34
2022-08-31T17:46:25.992Z,102050.94
2022-08-31T17:49:01.145Z,102050.25
2022-08-31T17:51:35.277Z,102048.25
2022-08-31T17:54:11.242Z,102040.72
2022-08-31T17:56:47.640Z,102051.63
2022-08-31T17:59:21.333Z,102046.88
2022-08-31T18:01:52.341Z,102044.25
2022-08-31T18:04:20.530Z,102051.53
2022-08-31T18:06:51.501Z,102057.06
2022-08-31T18:09:19.770Z,102060.66
2022-08-31T18:11:48.998Z,102058.44
2022-08-31T18:14:21.494Z,102069.09
2022-08-31T18:16:49.379Z,102066.94
2022-08-31T18:19:25.575Z,102075.03
2022-08-31T18:21:58.366Z,102073.25
2022-08-31T18:24:25.796Z,102074.25
2022-08-31T18:26:56.810Z,102074.00
2022-08-31T18:29:24.952Z,102070.72
2022-08-31T18:31:56.750Z,102084.16
2022-08-31T18:34:24.691Z,102088.41
2022-08-31T18:36:53.711Z,102092.38
2022-08-31T18:39:47.730Z,102083.78
2022-08-31T18:42:27.893Z,102087.09
2022-08-31T18:45:20.520Z,102091.06
2022-08-31T18:48:20.978Z,102098.94
2022-08-31T18:50:47.952Z,102100.41
2022-08-31T18:53:27.532Z,102093.25
2022-08-31T18:55:56.865Z,102081.13
2022-08-31T18:58:23.504Z,102105.34
2022-08-31T19:00:58.388Z,102111.03
2022-08-31T19:03:27.393Z,102114.56
2022-08-31T19:05:54.469Z,102116.88
2022-08-31T19:08:21.087Z,102120.25
2022-08-31T19:10:49.127Z,102105.34
2022-08-31T19:13:16.207Z,102125.25
2022-08-31T19:15:43.767Z,102122.84
2022-08-31T19:18:10.329Z,102127.75
2022-08-31T19:20:37.028Z,102124.88
2022-08-31T19:23:06.410Z,102128.88
2022-08-31T19:25:33.051Z,102144.88
2022-08-31T19:28:01.581Z,102135.88
2022-08-31T19:30:33.450Z,102139.59
2022-08-31T19:33:07.501Z,102140.25
2022-08-31T19:35:36.169Z,102138.69
2022-08-31T19:38:02.860Z,102138.91
2022-08-31T19:40:38.132Z,102141.84
2022-08-31T19:45:53.604Z,102141.56
2022-08-31T19:48:23.271Z,102135.84
2022-08-31T19:50:58.124Z,102145.00
2022-08-31T19:53:27.755Z,102147.41
2022-08-31T19:55:57.424Z,102148.09
2022-08-31T19:58:26.667Z,102142.75
2022-08-31T20:01:00.584Z,102140.81
2022-08-31T20:03:28.275Z,102148.28
2022-08-31T20:05:59.483Z,102154.88
2022-08-31T20:08:28.536Z,102144.34
2022-08-31T20:10:55.108Z,102143.78
2022-08-31T20:13:24.145Z,102133.63
2022-08-31T20:15:52.919Z,102142.31
2022-08-31T20:18:20.124Z,102144.63
2022-08-31T20:20:48.429Z,102133.72
2022-08-31T20:23:17.151Z,102153.50
2022-08-31T20:25:51.740Z,102130.06
2022-08-31T20:28:26.414Z,102133.03
2022-08-31T20:30:59.921Z,102138.97
2022-08-31T20:33:27.476Z,102134.44
2022-08-31T20:35:54.181Z,102146.47
2022-08-31T20:38:20.945Z,102136.16
2022-08-31T20:40:52.110Z,102140.16
2022-08-31T20:43:21.344Z,102144.56
2022-08-31T20:45:50.958Z,102143.56
2022-08-31T20:48:35.950Z,102141.03
2022-08-31T20:51:16.397Z,102143.47
2022-08-31T20:53:44.518Z,102139.91
2022-08-31T20:56:17.082Z,102133.75
2022-08-31T20:58:45.329Z,102134.28
2022-08-31T21:01:13.625Z,102136.19
2022-08-31T21:03:40.819Z,102143.53
2022-08-31T21:06:11.204Z,102135.25
2022-08-31T21:08:39.937Z,102137.72
2022-08-31T21:11:16.123Z,102136.06
2022-08-31T21:13:44.471Z,102136.09
2022-08-31T21:16:11.201Z,102133.50
2022-08-31T21:18:40.753Z,102128.88
2022-08-31T21:21:10.022Z,102137.53
2022-08-31T21:23:38.345Z,102133.06
2022-08-31T21:26:08.680Z,102135.84
2022-08-31T21:28:38.907Z,102144.16
2022-08-31T21:31:16.579Z,102144.84
2022-08-31T21:33:46.409Z,102141.59
2022-08-31T21:36:15.287Z,102133.13
2022-08-31T21:38:43.599Z,102143.19
2022-08-31T21:41:12.325Z,102139.56
2022-08-31T21:43:40.153Z,102143.22
2022-08-31T21:46:21.364Z,102145.63
2022-08-31T21:48:49.238Z,102140.59
2022-08-31T21:51:42.119Z,102148.22
2022-08-31T21:54:09.545Z,102144.47
2022-08-31T21:56:46.165Z,102147.75
2022-08-31T21:59:16.101Z,102148.47
2022-08-31T22:01:44.002Z,102160.22
2022-08-31T22:04:12.257Z,102144.63
2022-08-31T22:06:40.867Z,102164.16
2022-08-31T22:09:12.035Z,102156.41
2022-08-31T22:11:41.780Z,102160.69
2022-08-31T22:14:12.944Z,102157.75
2022-08-31T22:16:40.790Z,102149.13
2022-08-31T22:19:13.305Z,102154.47
2022-08-31T22:21:43.143Z,102163.28
2022-08-31T22:24:13.253Z,102156.69
2022-08-31T22:26:56.537Z,102159.59
2022-08-31T22:29:28.628Z,102169.09
2022-08-31T22:31:58.179Z,102166.16
2022-08-31T22:34:25.731Z,102170.63
2022-08-31T22:36:54.333Z,102171.28
2022-08-31T22:39:25.511Z,102168.31
2022-08-31T22:41:53.062Z,102175.56
2022-08-31T22:44:26.018Z,102171.94
2022-08-31T22:46:56.236Z,102169.97
2022-08-31T22:49:23.874Z,102165.81
2022-08-31T22:51:50.486Z,102168.03
2022-08-31T22:54:19.215Z,102164.06
2022-08-31T22:56:46.329Z,102158.63
2022-08-31T22:59:16.937Z,102163.13
2022-08-31T23:01:47.914Z,102170.19
2022-08-31T23:04:20.231Z,102155.47
2022-08-31T23:06:49.438Z,102151.81
2022-08-31T23:09:21.066Z,102158.88
2022-08-31T23:11:51.481Z,102153.53
2022-08-31T23:14:20.970Z,102139.00
2022-08-31T23:16:55.145Z,102143.50
2022-08-31T23:19:26.275Z,102151.75
2022-08-31T23:21:57.517Z,102145.53
2022-08-31T23:24:46.939Z,102146.72
2022-08-31T23:27:17.085Z,102144.84
2022-08-31T23:29:47.256Z,102149.66
2022-08-31T23:32:18.201Z,102138.78
2022-08-31T23:34:46.595Z,102140.84
2022-08-31T23:37:17.472Z,102143.94
2022-08-31T23:39:44.980Z,102120.94
2022-08-31T23:42:13.845Z,102135.81
2022-08-31T23:44:43.648Z,102124.25
2022-08-31T23:47:21.566Z,102128.50
2022-08-31T23:49:51.431Z,102121.59
2022-08-31T23:52:22.763Z,102119.91
2022-08-31T23:54:52.368Z,102126.28
2022-08-31T23:57:32.659Z,102106.78
